Time;durP1;ratioP1;P1;durP2;ratioP2;P2;SDS_P1;SDS_P2;PMS_P1;PMS_P2;Temp;Humidity;BMP_temperature;BMP_pressure;BME280_temperature;BME280_humidity;BME280_pressure;Samples;Min_cycle;Max_cycle;Signal;HPM_P1;HPM_P2
2023/09/11 00:02:26;;;;;;;17.00;15.57;;;18.70;70.70;;;;;;6205986;28;20351;-85
2023/09/11 00:05:29;;;;;;;16.03;14.67;;;18.80;70.90;;;;;;6206385;28;20239;-82
2023/09/11 00:08:33;;;;;;;16.40;14.93;;;18.70;70.90;;;;;;6218115;28;20254;-82
2023/09/11 00:11:36;;;;;;;16.23;14.77;;;18.70;70.90;;;;;;6208479;28;20355;-82
2023/09/11 00:14:39;;;;;;;16.30;14.83;;;18.70;70.90;;;;;;6218861;28;20238;-83
2023/09/11 00:17:44;;;;;;;14.80;13.70;;;18.70;70.90;;;;;;6208524;28;20247;-84
2023/09/11 00:20:47;;;;;;;16.23;14.63;;;18.60;71.00;;;;;;6210294;28;20236;-83
2023/09/11 00:23:50;;;;;;;14.37;13.27;;;18.60;71.00;;;;;;6218144;28;20909;-84
2023/09/11 00:26:54;;;;;;;14.50;13.37;;;18.60;71.20;;;;;;6205292;28;20306;-85
2023/09/11 00:29:57;;;;;;;13.83;12.73;;;18.50;71.20;;;;;;6215256;28;20243;-83
2023/09/11 00:33:02;;;;;;;13.97;12.77;;;18.50;71.20;;;;;;6202548;28;20246;-85
2023/09/11 00:36:05;;;;;;;15.10;13.90;;;18.50;71.20;;;;;;6208790;28;20440;-81
2023/09/11 00:39:09;;;;;;;13.73;12.60;;;18.50;71.40;;;;;;6205867;28;20238;-82
2023/09/11 00:42:12;;;;;;;14.37;13.17;;;18.50;71.40;;;;;;6206505;28;20712;-83
2023/09/11 00:45:15;;;;;;;14.93;13.57;;;18.40;71.50;;;;;;6225306;28;20231;-84
2023/09/11 00:48:20;;;;;;;13.40;12.40;;;18.40;71.60;;;;;;6219246;28;20265;-82
2023/09/11 00:51:23;;;;;;;14.17;12.97;;;18.40;71.60;;;;;;6214219;28;20366;-83
2023/09/11 00:54:27;;;;;;;13.27;12.13;;;18.40;71.50;;;;;;6205854;28;20236;-84
2023/09/11 00:57:30;;;;;;;13.13;12.13;;;18.40;71.70;;;;;;6198227;28;20232;-84
2023/09/11 01:00:33;;;;;;;14.57;13.47;;;18.30;71.70;;;;;;6198576;28;20235;-85
2023/09/11 01:03:39;;;;;;;14.73;13.53;;;18.30;72.00;;;;;;6201155;28;20247;-83
2023/09/11 01:06:42;;;;;;;14.63;13.37;;;18.30;72.10;;;;;;6213994;28;20624;-84
2023/09/11 01:09:45;;;;;;;13.47;12.37;;;18.30;72.10;;;;;;6206183;28;20244;-84
2023/09/11 01:12:49;;;;;;;13.30;12.30;;;18.30;72.00;;;;;;6217300;28;20247;-84
2023/09/11 01:16:02;;;;;;;12.83;11.73;;;18.30;72.10;;;;;;6209866;28;20392;-82
2023/09/11 01:19:37;;;;;;;14.30;13.13;;;18.20;72.10;;;;;;6190595;28;20266;-82
2023/09/11 01:22:59;;;;;;;12.73;11.77;;;18.20;72.10;;;;;;6187021;28;20261;-85
2023/09/11 01:26:15;;;;;;;13.47;12.47;;;18.20;72.20;;;;;;6179048;28;20303;-82
2023/09/11 01:29:25;;;;;;;14.63;13.47;;;18.10;72.20;;;;;;6193932;28;20512;-85
2023/09/11 01:32:30;;;;;;;13.83;12.73;;;18.10;72.30;;;;;;6181736;28;20325;-82
2023/09/11 01:35:33;;;;;;;14.60;13.50;;;18.10;72.40;;;;;;6191826;28;20294;-83
2023/09/11 01:38:36;;;;;;;13.47;12.47;;;18.10;72.50;;;;;;6201120;28;20249;-82
2023/09/11 01:41:43;;;;;;;13.70;12.60;;;18.10;72.60;;;;;;6213796;28;20297;-82
2023/09/11 01:44:51;;;;;;;13.77;12.67;;;18.10;72.80;;;;;;6208576;28;20246;-82
2023/09/11 01:47:55;;;;;;;14.47;13.33;;;18.00;72.80;;;;;;6207388;28;20241;-84
2023/09/11 01:50:59;;;;;;;15.07;13.80;;;18.00;72.70;;;;;;6216149;28;20231;-83
2023/09/11 01:54:03;;;;;;;13.67;12.67;;;18.00;72.70;;;;;;6208372;28;20290;-83
2023/09/11 01:57:07;;;;;;;13.67;12.57;;;18.00;72.80;;;;;;6211940;28;20227;-83
2023/09/11 02:00:13;;;;;;;13.70;12.70;;;18.00;72.80;;;;;;6215971;28;20618;-83
2023/09/11 02:03:17;;;;;;;13.03;12.03;;;18.00;72.80;;;;;;6210850;28;20236;-84
2023/09/11 02:06:20;;;;;;;12.70;11.70;;;18.00;72.90;;;;;;6209252;28;21551;-85
2023/09/11 02:09:24;;;;;;;14.23;12.93;;;17.90;72.90;;;;;;6214952;28;20239;-83
2023/09/11 02:12:29;;;;;;;13.57;12.60;;;17.90;73.00;;;;;;6217371;28;20240;-83
2023/09/11 02:15:34;;;;;;;15.33;14.03;;;17.80;73.10;;;;;;6211760;28;20247;-86
2023/09/11 02:18:39;;;;;;;14.33;13.23;;;17.80;73.20;;;;;;6215249;28;20239;-84
2023/09/11 02:21:43;;;;;;;14.70;13.63;;;17.80;73.20;;;;;;6201753;28;20237;-81
2023/09/11 02:24:46;;;;;;;13.23;12.23;;;17.80;73.30;;;;;;6217431;28;20235;-82
2023/09/11 02:27:49;;;;;;;12.83;11.93;;;17.80;73.30;;;;;;6205577;28;20235;-84
2023/09/11 02:30:54;;;;;;;13.80;12.90;;;17.80;73.30;;;;;;6218316;28;20258;-82
2023/09/11 02:33:58;;;;;;;13.67;12.77;;;17.80;73.30;;;;;;6209699;28;20239;-82
2023/09/11 02:37:01;;;;;;;14.23;12.90;;;17.80;73.40;;;;;;6203015;28;20283;-82
2023/09/11 02:40:07;;;;;;;14.37;13.37;;;17.70;73.50;;;;;;6206357;28;20634;-81
2023/09/11 02:43:10;;;;;;;14.30;13.23;;;17.70;73.60;;;;;;6204314;28;20254;-84
2023/09/11 02:46:14;;;;;;;15.00;13.77;;;17.70;73.70;;;;;;6211602;28;20248;-84
2023/09/11 02:49:18;;;;;;;14.67;13.53;;;17.60;73.70;;;;;;6217147;28;20263;-81
2023/09/11 02:52:21;;;;;;;16.00;14.77;;;17.60;73.90;;;;;;6214832;28;20239;-83
2023/09/11 02:55:24;;;;;;;14.97;13.87;;;17.60;74.00;;;;;;6210542;28;20231;-83
2023/09/11 02:58:28;;;;;;;14.77;13.67;;;17.60;74.10;;;;;;6214564;28;20329;-84
2023/09/11 03:01:33;;;;;;;14.13;13.13;;;17.60;74.20;;;;;;6210388;28;20231;-83
2023/09/11 03:04:36;;;;;;;14.20;13.10;;;17.50;74.30;;;;;;6219509;28;20726;-82
2023/09/11 03:07:39;;;;;;;14.27;13.17;;;17.50;74.40;;;;;;6213422;28;20250;-83
2023/09/11 03:10:43;;;;;;;14.50;13.50;;;17.50;74.40;;;;;;6220488;28;20235;-81
2023/09/11 03:13:46;;;;;;;14.97;13.87;;;17.50;74.50;;;;;;6217373;28;20246;-84
2023/09/11 03:16:51;;;;;;;14.50;13.47;;;17.50;74.50;;;;;;6218728;28;20692;-81
2023/09/11 03:19:54;;;;;;;14.80;13.73;;;17.50;74.40;;;;;;6210501;28;20235;-86
2023/09/11 03:22:59;;;;;;;15.30;14.20;;;17.50;74.50;;;;;;6209052;28;20270;-84
2023/09/11 03:26:03;;;;;;;15.17;14.00;;;17.50;74.60;;;;;;6216697;28;20594;-82
2023/09/11 03:29:06;;;;;;;15.03;13.73;;;17.40;74.50;;;;;;6217600;28;20239;-83
2023/09/11 03:32:10;;;;;;;15.67;14.50;;;17.40;74.60;;;;;;6211121;28;20898;-84
2023/09/11 03:35:14;;;;;;;15.37;14.17;;;17.40;74.70;;;;;;6214627;28;20239;-82
2023/09/11 03:38:17;;;;;;;15.90;14.60;;;17.40;74.90;;;;;;6218648;28;20246;-82
2023/09/11 03:41:21;;;;;;;14.27;13.13;;;17.40;75.10;;;;;;6224824;28;20238;-82
2023/09/11 03:44:24;;;;;;;15.67;14.37;;;17.40;75.20;;;;;;6229919;28;20706;-83
2023/09/11 03:47:29;;;;;;;14.50;13.33;;;17.40;75.30;;;;;;6222673;28;20231;-84
2023/09/11 03:50:32;;;;;;;15.53;14.23;;;17.40;75.40;;;;;;6219499;28;20923;-87
2023/09/11 03:53:42;;;;;;;17.40;16.00;;;17.40;75.60;;;;;;6220906;28;20350;-82
2023/09/11 03:56:45;;;;;;;17.17;15.63;;;17.40;75.70;;;;;;6216774;28;20245;-78
2023/09/11 03:59:49;;;;;;;18.20;16.63;;;17.40;75.90;;;;;;6210898;28;20262;-79
2023/09/11 04:02:53;;;;;;;18.13;16.53;;;17.30;76.00;;;;;;6212818;28;20680;-78
2023/09/11 04:05:56;;;;;;;15.93;14.63;;;17.30;76.00;;;;;;6216996;28;20243;-80
2023/09/11 04:08:59;;;;;;;17.83;16.13;;;17.20;76.10;;;;;;6211182;28;20240;-79
2023/09/11 04:12:03;;;;;;;17.63;16.13;;;17.20;76.20;;;;;;6219465;28;20338;-80
2023/09/11 04:15:09;;;;;;;17.70;16.20;;;17.20;76.20;;;;;;6210630;28;20864;-79
2023/09/11 04:18:13;;;;;;;17.60;16.17;;;17.20;76.20;;;;;;6206441;28;20298;-80
2023/09/11 04:21:16;;;;;;;18.17;16.37;;;17.20;76.20;;;;;;6220535;28;20234;-77
2023/09/11 04:24:21;;;;;;;19.27;17.47;;;17.20;76.40;;;;;;6206907;28;20242;-77
2023/09/11 04:27:24;;;;;;;19.07;17.13;;;17.20;76.40;;;;;;6200295;28;20239;-79
2023/09/11 04:30:27;;;;;;;18.27;16.57;;;17.20;76.40;;;;;;6214985;28;20321;-79
2023/09/11 04:33:32;;;;;;;20.30;18.50;;;17.20;76.50;;;;;;6220668;28;20231;-79
2023/09/11 04:36:35;;;;;;;20.13;18.23;;;17.20;76.60;;;;;;6221524;28;20251;-76
2023/09/11 04:39:38;;;;;;;18.73;17.07;;;17.20;76.60;;;;;;6213848;28;20750;-76
2023/09/11 04:42:43;;;;;;;18.40;16.83;;;17.20;76.50;;;;;;6204871;28;20234;-79
2023/09/11 04:45:46;;;;;;;17.57;16.03;;;17.20;76.50;;;;;;6213971;28;21026;-78
2023/09/11 04:48:51;;;;;;;18.20;16.60;;;17.20;76.60;;;;;;6204027;28;20321;-79
2023/09/11 04:51:54;;;;;;;18.53;16.80;;;17.20;76.50;;;;;;6213578;28;20601;-80
2023/09/11 04:54:58;;;;;;;18.43;16.93;;;17.20;76.50;;;;;;6212550;28;20302;-77
2023/09/11 04:58:02;;;;;;;18.07;16.43;;;17.20;76.50;;;;;;6211510;28;20712;-79
2023/09/11 05:01:05;;;;;;;18.50;16.80;;;17.20;76.40;;;;;;6199284;28;20250;-82
2023/09/11 05:04:09;;;;;;;19.50;17.50;;;17.20;76.40;;;;;;6209137;28;20251;-77
2023/09/11 05:07:13;;;;;;;18.53;16.73;;;17.20;76.40;;;;;;6216849;28;20841;-77
2023/09/11 05:10:16;;;;;;;18.90;17.13;;;17.20;76.40;;;;;;6211348;28;20239;-79
2023/09/11 05:13:19;;;;;;;20.97;19.03;;;17.30;76.40;;;;;;6213688;28;20232;-77
2023/09/11 05:16:22;;;;;;;20.97;18.83;;;17.30;76.30;;;;;;6216008;28;20333;-76
2023/09/11 05:19:27;;;;;;;22.20;19.90;;;17.40;76.30;;;;;;6200388;28;20234;-80
2023/09/11 05:22:30;;;;;;;19.33;17.47;;;17.40;76.20;;;;;;6214412;28;20754;-78
2023/09/11 05:25:36;;;;;;;20.00;18.07;;;17.50;76.20;;;;;;6214656;28;20247;-78
2023/09/11 05:28:39;;;;;;;18.93;17.13;;;17.50;76.10;;;;;;6208474;28;20244;-78
2023/09/11 05:31:42;;;;;;;22.00;19.97;;;17.60;76.00;;;;;;6198336;28;20239;-80
2023/09/11 05:34:47;;;;;;;24.63;22.20;;;17.60;75.90;;;;;;6210446;28;20227;-77
2023/09/11 05:37:50;;;;;;;22.90;20.73;;;17.70;75.80;;;;;;6209253;28;20262;-78
2023/09/11 05:40:53;;;;;;;20.50;18.70;;;17.80;75.60;;;;;;6209294;28;20318;-77
2023/09/11 05:43:56;;;;;;;25.20;22.70;;;17.80;75.30;;;;;;6212531;28;20239;-74
2023/09/11 05:46:59;;;;;;;21.03;19.03;;;18.00;75.10;;;;;;6216881;28;20821;-78
2023/09/11 05:50:04;;;;;;;20.37;18.40;;;18.00;75.00;;;;;;6218005;28;20333;-75
2023/09/11 05:53:07;;;;;;;19.60;17.87;;;18.10;74.70;;;;;;6213515;28;20236;-75
2023/09/11 05:56:11;;;;;;;19.07;17.47;;;18.20;74.60;;;;;;6214557;28;20834;-76
2023/09/11 05:59:18;;;;;;;18.10;16.47;;;18.20;74.30;;;;;;6212427;28;20754;-76
2023/09/11 06:02:21;;;;;;;20.60;18.70;;;18.40;74.10;;;;;;6215365;28;20235;-77
2023/09/11 06:05:26;;;;;;;21.27;19.17;;;18.50;73.80;;;;;;6219245;28;20605;-76
2023/09/11 06:08:29;;;;;;;23.27;20.80;;;18.60;73.80;;;;;;6216996;28;20239;-78
2023/09/11 06:11:33;;;;;;;20.13;18.23;;;18.80;72.90;;;;;;6214735;28;20239;-76
2023/09/11 06:14:37;;;;;;;23.63;21.33;;;19.00;72.50;;;;;;6215041;28;20868;-74
2023/09/11 06:17:41;;;;;;;19.70;17.83;;;19.20;71.50;;;;;;6212290;28;20244;-76
2023/09/11 06:20:49;;;;;;;20.27;18.17;;;19.30;71.50;;;;;;6216198;28;20296;-77
2023/09/11 06:23:52;;;;;;;19.73;17.90;;;19.50;71.20;;;;;;6209663;28;20798;-75
2023/09/11 06:27:08;;;;;;;17.70;16.10;;;19.60;70.80;;;;;;6215194;28;20231;-75
2023/09/11 06:30:11;;;;;;;18.43;16.47;;;19.90;70.40;;;;;;6203483;28;20369;-76
2023/09/11 06:33:15;;;;;;;23.23;20.77;;;20.00;70.00;;;;;;6209238;28;20238;-76
2023/09/11 06:36:19;;;;;;;18.40;16.50;;;20.00;69.20;;;;;;6201375;28;20649;-76
2023/09/11 06:39:22;;;;;;;17.60;16.00;;;20.00;69.50;;;;;;6205846;28;20239;-74
2023/09/11 06:42:26;;;;;;;24.07;21.07;;;20.10;69.30;;;;;;6203270;28;20711;-78
2023/09/11 06:45:31;;;;;;;21.93;19.57;;;20.10;68.30;;;;;;6206751;28;20248;-74
2023/09/11 06:48:34;;;;;;;21.17;19.27;;;20.30;67.70;;;;;;6208221;28;20243;-75
2023/09/11 06:51:38;;;;;;;21.80;19.47;;;20.50;67.60;;;;;;6205273;28;20480;-76
2023/09/11 06:54:42;;;;;;;20.33;18.23;;;20.60;67.60;;;;;;6207127;28;20235;-75
2023/09/11 06:57:56;;;;;;;21.27;19.03;;;20.70;67.00;;;;;;6203138;28;20610;-79
2023/09/11 07:01:02;;;;;;;22.03;18.17;;;20.70;66.90;;;;;;6201871;28;20239;-77
2023/09/11 07:04:06;;;;;;;21.50;19.13;;;20.90;66.90;;;;;;6203000;28;20302;-79
2023/09/11 07:07:12;;;;;;;20.93;17.30;;;20.90;66.90;;;;;;6210386;28;20492;-79
2023/09/11 07:10:18;;;;;;;18.77;15.10;;;21.00;66.00;;;;;;6202181;28;20639;-79
2023/09/11 07:13:37;;;;;;;20.87;17.40;;;21.00;66.30;;;;;;6206888;28;20243;-77
2023/09/11 07:16:41;;;;;;;18.90;15.77;;;21.10;65.60;;;;;;6202521;28;20354;-78
2023/09/11 07:19:49;;;;;;;14.80;13.43;;;21.30;64.80;;;;;;6211614;28;20416;-79
2023/09/11 07:22:54;;;;;;;14.03;12.30;;;21.40;64.70;;;;;;6182418;28;20383;-80
2023/09/11 07:25:58;;;;;;;15.13;13.07;;;21.50;64.40;;;;;;6183087;28;20783;-76
2023/09/11 07:29:03;;;;;;;15.23;12.57;;;21.70;64.00;;;;;;6184037;28;20751;-78
2023/09/11 07:32:06;;;;;;;17.30;13.63;;;21.90;63.50;;;;;;6192384;28;20286;-78
2023/09/11 07:35:10;;;;;;;11.90;10.70;;;22.00;63.00;;;;;;6179439;28;20232;-78
